HOURLY OBS INDEX

079

Wimmera - south

EDENHOPE AIRPORT

Site: 079099
Alt: 155.0m
90km WSW of HORSHAM


  Time     Wind        Temp  DP   Baro     Rain since   Rain past  Vis(m), Cloud(base in m), Weather
  local        km/h                         9am  last   hr   10m    
Wed 20:00   NW 11/ 17   9.7  9.7  ------    5.4   0.2   0.4   0.0   ----- 
Wed 20:30   NW 11/ 17   9.8  9.8  ------    5.4   0.0   0.2   0.0   ----- 
Wed 21:00  WNW  9/ 13  10.1 10.1  ------    5.4   0.0   0.0   0.0   ----- 
Wed 21:30    W 11/ 17  10.1 10.1  ------    5.4   0.0   0.0   0.0   ----- 
Wed 22:00   SW 11/ 20  10.1 10.1  ------    5.4   0.0   0.0   0.0   ----- 
Wed 22:30  WSW 11/ 19   9.8  9.8  ------    5.4   0.0   0.0   0.0   ----- 
Wed 23:00  WSW  9/ 13   9.7  9.7  ------    5.4   0.0   0.0   0.0   ----- 
Wed 23:30    W  9/ 19   9.4  9.4  ------    5.4   0.0   0.0   0.0   ----- 
Thu 00:00  WSW 11/ 15   9.1  9.1  ------    5.4   0.0   0.0   0.0   ----- 
Thu 00:30  WSW  9/ 13   9.0  9.0  ------    5.4   0.0   0.0   0.0   ----- 
Thu 01:00    W  6/  9   8.7  8.7  ------    5.4   0.0   0.0   0.0   ----- 

GRAMPIANS (MOUNT WILLIAM)

Site: 079103
Alt: 1150.0m
29km W of ARARAT


  Time     Wind        Temp  DP   Baro     Rain since   Rain past  Vis(m), Cloud(base in m), Weather
  local        km/h                         9am  last   hr   10m    
Wed 20:00    W 26/ 33   2.0  2.0  ------   12.8   0.6   1.2   0.2   ----- 
Wed 20:30  WNW 22/ 32   2.1  2.1  ------   13.0   0.2   0.8   0.0   ----- 
Wed 21:00   NW 15/ 20   2.4  2.4  ------   13.4   0.4   0.6   0.2   ----- 
Wed 21:30  NNW 20/ 24   2.5  2.5  ------   13.4   0.0   0.4   0.0   ----- 
Wed 22:00  NNW 19/ 28   2.7  2.7  ------   14.0   0.6   0.6   0.2   ----- 
Wed 22:30  NNW 15/ 20   2.7  2.7  ------   14.6   0.6   1.2   0.2   ----- 
Wed 23:00    N 13/ 22   2.8  2.8  ------   14.6   0.0   0.6   0.0   ----- 
Wed 23:30  NNW 15/ 24   3.1  3.1  ------   14.8   0.2   0.2   0.0   ----- 
Thu 00:00  WNW 17/ 20   3.2  3.2  ------   15.2   0.4   0.6   0.2   ----- 
Thu 00:30   NE 11/ 17   3.2  3.2  ------   15.4   0.2   0.6   0.0   ----- 
Thu 01:00    W 15/ 19   2.9  2.9  ------   15.6   0.2   0.4   0.2   ----- 

HORSHAM AERODROME

Site: 079100
Alt: 133.8m
5km NNW of HORSHAM


  Time     Wind        Temp  DP   Baro     Rain since   Rain past  Vis(m), Cloud(base in m), Weather
  local        km/h                         9am  last   hr   10m    
Wed 20:00    N 20/ 28   9.1  8.8  1008.1   19.8   0.8   1.6   0.0   10000|BR1320 OC1530 
Wed 20:30    N 24/ 30   9.0  8.7  1008.0   21.0   1.2   2.0   0.4   10000|SC 360 SC 660 SC 870 
Wed 21:00    N 28/ 32   9.0  8.9  1007.6   22.0   1.0   2.2   0.2   10000|SC 720 BR 930 BR1170 
Wed 21:30    N 26/ 33   9.1  9.0  1007.6   22.6   0.6   1.6   0.0    9000|BR 450 OC 750 OC1080 
Wed 21:34    N 28/ 35   9.1  9.0  1007.6   22.6   0.0  ----   0.0    9000|SC 330 BR 450 OC 690 
Wed 21:46    N 28/ 32   9.2  9.1  1007.6   23.0   0.4  ----   0.4    5000|OC 330 OC 510 
Wed 21:56    N 24/ 30   9.2  9.1  1007.7   23.0   0.0  ----   0.0    8000|BR 270 OC 420 
Wed 21:59    N 22/ 28   9.2  9.1  1007.7   23.0   0.0  ----   0.0    5000|BR 270 OC 390 
Wed 22:00    N 22/ 30   9.2  9.1  1007.6   23.0   0.0   1.0   0.0    5000|BR 270 OC 390 
Wed 22:16  NNW 24/ 30   9.2  9.1  1007.6   23.0   0.0  ----   0.0   10000|SC 270 OC 390 
Wed 22:30  NNW 22/ 26   9.3  9.2  1007.6   23.0   0.0   0.4   0.0    9000|SC 180 OC 390 
Wed 22:58   NW 22/ 28   9.3  9.2  1007.5   23.2   0.2  ----   0.0    5000|OC 180 
Wed 23:00   NW 22/ 28   9.3  9.2  1007.5   23.2   0.0   0.2   0.0    6000|OC 180 
Wed 23:09   NW 22/ 30   9.3  9.2  1007.6   23.2   0.0  ----   0.0   10000|OC 180 
Wed 23:30   NW 20/ 24   9.4  9.3  1007.5   23.2   0.0   0.2   0.0    6000|OC 180 
Thu 00:00  WNW 19/ 22   9.6  9.5  1007.8   23.2   0.0   0.0   0.0    8000|BR 180 BR 240 OC 360 
Thu 00:30  WNW 19/ 20   9.7  9.6  1007.8   23.2   0.0   0.0   0.0   10000|BR 180 BR 390 OC 720 
Thu 00:48    W 17/ 22   9.8  9.7  1007.8   23.2   0.0  ----   0.0   10000|SC 180 OC 600 
Thu 01:00    W 20/ 26   9.8  9.7  1007.9   23.2   0.0   0.0   0.0   10000|OC 540 

KANAGULK

Site: 079097
Alt: 188.8m
57km SW of HORSHAM


  Time     Wind        Temp  DP   Baro     Rain since   Rain past  Vis(m), Cloud(base in m), Weather
  local        km/h                         9am  last   hr   10m    
Wed 20:00    N 11/ 17   8.9  8.3  1006.9    4.0   0.4   0.6   0.4   ----- 
Wed 20:30    N 11/ 15   8.9  8.5  1007.0    5.4   1.4   1.8   0.4   ----- 
Wed 21:00    N 11/ 17   9.0  8.6  1006.9    5.6   0.2   1.6   0.0   ----- 
Wed 21:30    N  7/ 11   9.1  8.6  1006.9    5.8   0.2   0.4   0.2   ----- 
Wed 22:00   NW  7/ 11   9.2  8.7  1006.9    6.2   0.4   0.6   0.0   ----- 
Wed 22:30  WNW  9/ 13   9.4  9.1  1006.9    6.2   0.0   0.4   0.0   ----- 
Wed 23:00  WSW  4/ 11   9.5  9.0  1007.1    6.4   0.2   0.2   0.0   ----- 
Wed 23:30   SW  7/ 13   9.5  9.0  1007.3    6.4   0.0   0.2   0.0   ----- 
Thu 00:00  WSW  4/ 11   9.1  8.6  1007.5    6.6   0.2   0.2   0.2   ----- 
Thu 00:30   SW  6/  9   9.1  8.6  1007.7    6.6   0.0   0.2   0.0   ----- 
Thu 01:00   SW  7/ 15   8.6  8.0  1008.0    6.6   0.0   0.0   0.0   ----- 

LONGERENONG

Site: 079028
Alt: 133.0m
10km ENE of HORSHAM


  Time     Wind        Temp  DP   Baro     Rain since   Rain past  Vis(m), Cloud(base in m), Weather
  local        km/h                         9am  last   hr   10m    
Wed 20:00    N 13/ 19   9.2  9.1  ------   18.6   0.8   1.8   0.2   ----- 
Wed 20:30    N 11/ 19   9.0  8.9  ------   19.6   1.0   1.8   0.2   ----- 
Wed 21:00    N 20/ 28   9.0  8.9  ------   21.4   1.8   2.8   0.6   ----- 
Wed 21:30    N 17/ 26   9.1  9.0  ------   22.6   1.2   3.0   0.8   ----- 
Wed 22:00    N 19/ 26   9.1  9.0  ------   23.0   0.4   1.6   0.2   ----- 
Wed 22:30  NNW 19/ 26   9.2  9.1  ------   23.0   0.0   0.4   0.0   ----- 
Wed 23:00  NNW 19/ 26   9.3  9.3  ------   23.4   0.4   0.4   0.0   ----- 
Wed 23:30  WNW 13/ 20   9.4  9.4  ------   23.4   0.0   0.4   0.0   ----- 
Thu 00:00   NW 13/ 20   9.5  9.5  ------   23.4   0.0   0.0   0.0   ----- 
Thu 00:30  WNW 13/ 17   9.5  9.5  ------   23.4   0.0   0.0   0.0   ----- 
Thu 01:00  WNW 15/ 20   9.7  9.7  ------   23.4   0.0   0.0   0.0   ----- 

PYRENEES (BEN NEVIS)

Site: 079101
Alt: 875.0m
25km ENE of ARARAT


  Time     Wind        Temp  DP   Baro     Rain since   Rain past  Vis(m), Cloud(base in m), Weather
  local        km/h                         9am  last   hr   10m    
Wed 20:00    N 13/ 20   3.9  3.9  ------    7.4   1.8   4.6   0.4   ----- 
Wed 20:30    N 15/ 24   3.7  3.7  ------    8.0   0.6   2.4   0.2   ----- 
Wed 21:00    N 15/ 24   3.6  3.6  ------    8.2   0.2   0.8   0.0   ----- 
Wed 21:30    N 15/ 30   3.8  3.8  ------    8.4   0.2   0.4   0.0   ----- 
Wed 22:00    N 15/ 24   3.8  3.8  ------    8.4   0.0   0.2   0.0   ----- 
Wed 22:30    N 13/ 22   3.9  3.9  ------    8.6   0.2   0.2   0.2   ----- 
Wed 23:00    N 13/ 24   3.9  3.9  ------    8.6   0.0   0.2   0.0   ----- 
Wed 23:30    N 15/ 22   3.7  3.7  ------    8.6   0.0   0.0   0.0   ----- 
Thu 00:00    N 11/ 19   3.8  3.8  ------    8.8   0.2   0.2   0.0   ----- 
Thu 00:30    N  9/ 15   3.8  3.8  ------    9.2   0.4   0.6   0.0   ----- 
Thu 01:00    N  9/ 15   3.9  3.9  ------    9.6   0.4   0.8   0.2   ----- 

STAWELL AERODROME

Site: 079105
Alt: 235.4m
4km WSW of STAWELL


  Time     Wind        Temp  DP   Baro     Rain since   Rain past  Vis(m), Cloud(base in m), Weather
  local        km/h                         9am  last   hr   10m    
Wed 20:00    N  9/ 19   8.0  7.9  1008.1   18.6   0.4   1.4   0.2   ----- 
Wed 20:30  NNE 11/ 19   8.2  8.1  1008.1   19.0   0.4   0.8   0.4   ----- 
Wed 21:00    N 13/ 19   8.2  8.1  1008.2   19.0   0.0   0.4   0.0   ----- 
Wed 21:30    N 13/ 17   8.1  8.0  1008.2   19.4   0.4   0.4   0.4   ----- 
Wed 22:00  NNE  9/ 15   8.0  7.9  1007.9   19.6   0.2   0.6   0.0   ----- 
Wed 22:30   NE 11/ 15   8.0  7.9  1007.6   19.8   0.2   0.4   0.0   ----- 
Wed 23:00   NE 11/ 17   8.0  7.9  1007.7   20.2   0.4   0.6   0.2   ----- 
Wed 23:30  NNE 11/ 17   8.1  8.0  1007.6   20.2   0.0   0.4   0.0   ----- 
Thu 00:00  NNE  9/ 13   8.1  8.0  1007.6   20.4   0.2   0.2   0.0   ----- 
Thu 00:30   NE  7/ 11   8.1  8.0  1007.5   20.4   0.0   0.2   0.0   ----- 
Thu 01:00    E  7/  9   8.1  8.0  1007.5   20.6   0.2   0.2   0.0   -----